Time;durP1;ratioP1;P1;durP2;ratioP2;P2;SDS_P1;SDS_P2;PMS_P1;PMS_P2;Temp;Humidity;BMP_temperature;BMP_pressure;BME280_temperature;BME280_humidity;BME280_pressure;Samples;Min_cycle;Max_cycle;Signal;HPM_P1;HPM_P2
2022/09/24 00:01:25;;;;;;;7.00;3.67;;;;;;;9.40;67.99;97325.13;5089306;28;20223;-76
2022/09/24 00:03:59;;;;;;;4.00;3.60;;;;;;;9.33;68.36;97318.53;5104948;28;20252;-81
2022/09/24 00:06:28;;;;;;;5.27;3.77;;;;;;;9.26;68.81;97322.22;5108028;28;20249;-82
2022/09/24 00:08:56;;;;;;;3.20;2.90;;;;;;;9.49;68.66;97313.63;5089441;28;20235;-81
2022/09/24 00:11:25;;;;;;;4.17;3.37;;;;;;;9.66;68.53;97301.78;5106469;28;20212;-78
2022/09/24 00:13:54;;;;;;;3.70;3.30;;;;;;;9.69;67.04;97306.81;5088729;28;20279;-77
2022/09/24 00:16:24;;;;;;;5.00;3.30;;;;;;;8.96;69.21;97300.88;5079953;28;20280;-77
2022/09/24 00:18:52;;;;;;;3.50;3.20;;;;;;;8.76;69.72;97310.22;5109564;28;20282;-80
2022/09/24 00:21:23;;;;;;;4.03;3.60;;;;;;;8.75;69.94;97305.97;5108426;28;20237;-80
2022/09/24 00:23:58;;;;;;;5.90;3.13;;;;;;;8.79;70.33;97318.72;5109308;28;20284;-81
2022/09/24 00:29:15;;;;;;;4.07;3.37;;;;;;;8.93;68.78;97308.75;5090666;28;20219;-77
2022/09/24 00:31:41;;;;;;;4.87;3.30;;;;;;;9.14;68.50;97312.31;5088823;28;20701;-77
2022/09/24 00:34:09;;;;;;;5.23;3.30;;;;;;;9.26;68.55;97311.03;5087175;28;20196;-78
2022/09/24 00:36:36;;;;;;;3.73;3.33;;;;;;;9.07;68.19;97284.19;5088606;28;20184;-77
2022/09/24 00:39:04;;;;;;;3.50;3.20;;;;;;;9.25;67.81;97315.38;5087694;28;20275;-77
2022/09/24 00:41:34;;;;;;;4.60;3.30;;;;;;;9.30;68.15;97317.78;5089926;28;20227;-78
2022/09/24 00:44:53;;;;;;;4.40;3.40;;;;;;;9.38;68.43;97320.91;5089510;28;20311;-81
2022/09/24 00:47:28;;;;;;;4.10;3.50;;;;;;;9.38;67.60;97321.78;5068102;28;20200;-78
2022/09/24 00:50:33;;;;;;;4.87;3.43;;;;;;;9.32;67.65;97314.25;5070597;28;20245;-77
2022/09/24 00:53:05;;;;;;;5.17;3.17;;;;;;;9.04;68.56;97305.81;5046597;28;20234;-76
2022/09/24 00:55:35;;;;;;;6.60;4.00;;;;;;;8.88;68.82;97310.66;5086990;28;20191;-78
2022/09/24 00:58:06;;;;;;;6.63;3.40;;;;;;;8.85;69.66;97304.75;5088370;28;20253;-80
2022/09/24 01:00:36;;;;;;;3.23;2.93;;;;;;;8.96;68.87;97308.63;5086900;28;20211;-81
2022/09/24 01:03:10;;;;;;;6.10;4.00;;;;;;;8.75;69.78;97287.91;5088285;28;20235;-79
2022/09/24 01:05:37;;;;;;;4.57;3.83;;;;;;;8.60;70.49;97306.47;5087478;28;20275;-79
2022/09/24 01:08:16;;;;;;;4.37;3.60;;;;;;;8.50;70.40;97303.38;5087672;28;20191;-78
2022/09/24 01:11:19;;;;;;;4.73;3.93;;;;;;;8.76;70.60;97302.47;5087997;28;20215;-76
2022/09/24 01:13:55;;;;;;;5.37;4.20;;;;;;;8.90;69.53;97292.53;5073488;28;20196;-78
2022/09/24 01:16:37;;;;;;;5.17;3.70;;;;;;;9.07;69.19;97300.50;5088291;28;20215;-77
2022/09/24 01:19:26;;;;;;;5.03;4.13;;;;;;;9.08;69.97;97302.22;5087881;28;20667;-81
2022/09/24 01:21:57;;;;;;;6.43;3.90;;;;;;;9.13;69.73;97300.28;5086951;28;20267;-81
2022/09/24 01:24:34;;;;;;;7.50;4.10;;;;;;;9.16;68.51;97300.19;5089758;28;20279;-81
2022/09/24 01:27:12;;;;;;;5.10;3.73;;;;;;;8.97;69.58;97304.31;5087410;28;20253;-79
2022/09/24 01:30:09;;;;;;;4.40;4.00;;;;;;;8.60;70.90;97306.47;5088833;28;20211;-76
2022/09/24 01:32:44;;;;;;;6.80;4.83;;;;;;;8.40;71.97;97298.56;5071582;28;20587;-80
2022/09/24 01:35:42;;;;;;;4.93;4.27;;;;;;;8.22;72.69;97303.38;5087574;28;20202;-80
2022/09/24 01:38:17;;;;;;;6.27;4.40;;;;;;;7.84;73.63;97275.41;5092069;28;20617;-77
2022/09/24 01:40:45;;;;;;;9.60;5.40;;;;;;;8.01;73.96;97308.41;5092717;28;20220;-79
2022/09/24 01:43:14;;;;;;;5.97;4.80;;;;;;;7.81;73.92;97311.59;5092963;28;20216;-80
2022/09/24 01:45:41;;;;;;;6.30;4.90;;;;;;;7.88;74.65;97307.09;5093064;28;20553;-79
2022/09/24 01:48:08;;;;;;;6.80;4.40;;;;;;;7.90;74.23;97311.31;5091228;28;20197;-79
2022/09/24 01:51:07;;;;;;;6.07;4.40;;;;;;;7.98;73.99;97321.38;5092847;28;20313;-77
2022/09/24 01:53:56;;;;;;;4.93;4.47;;;;;;;7.89;73.31;97311.38;5073682;28;20294;-81
2022/09/24 01:56:32;;;;;;;7.07;4.40;;;;;;;7.79;74.97;97318.53;5106528;28;20741;-80
2022/09/24 01:59:12;;;;;;;4.83;4.03;;;;;;;7.71;74.70;97317.06;5092312;28;20191;-81
2022/09/24 02:01:49;;;;;;;4.53;3.93;;;;;;;7.66;75.01;97316.38;5090683;28;20177;-81
2022/09/24 02:04:19;;;;;;;5.07;3.80;;;;;;;7.72;74.91;97317.03;5091876;28;20192;-79
2022/09/24 02:07:02;;;;;;;4.83;3.50;;;;;;;7.69;75.42;97322.28;5092133;28;20177;-80
2022/09/24 02:09:30;;;;;;;5.90;3.83;;;;;;;7.71;75.98;97324.78;5090326;28;20286;-81
2022/09/24 02:12:02;;;;;;;4.43;3.40;;;;;;;7.67;75.76;97324.03;5091658;28;20216;-80
2022/09/24 02:14:35;;;;;;;4.03;3.63;;;;;;;7.73;75.44;97321.28;5090578;28;20190;-80
2022/09/24 02:17:03;;;;;;;5.97;3.83;;;;;;;7.70;75.84;97323.97;5092435;28;20271;-80
2022/09/24 02:19:36;;;;;;;4.17;3.43;;;;;;;7.85;75.53;97320.09;5090964;28;20183;-81
2022/09/24 02:22:06;;;;;;;3.37;3.07;;;;;;;7.96;74.20;97321.44;5091022;28;20264;-81
2022/09/24 02:24:44;;;;;;;4.37;3.10;;;;;;;8.04;74.68;97334.94;5093260;28;20184;-78
2022/09/24 02:27:11;;;;;;;3.67;3.03;;;;;;;8.02;74.26;97321.25;5090369;28;20730;-76
2022/09/24 02:29:38;;;;;;;4.00;3.60;;;;;;;8.04;73.70;97326.34;5091624;28;20209;-76
2022/09/24 02:32:08;;;;;;;3.80;3.47;;;;;;;8.03;74.35;97325.53;5089625;28;20254;-77
2022/09/24 02:34:39;;;;;;;3.97;3.30;;;;;;;8.12;73.93;97325.22;5091036;28;20197;-76
2022/09/24 02:37:09;;;;;;;3.63;3.10;;;;;;;8.02;73.55;97295.47;5072014;28;20205;-78
2022/09/24 02:39:36;;;;;;;4.07;3.40;;;;;;;8.14;73.45;97325.16;5089884;28;20924;-77
2022/09/24 02:42:04;;;;;;;6.97;3.90;;;;;;;7.99;73.15;97323.09;5090876;28;20256;-76
2022/09/24 02:44:33;;;;;;;5.03;3.73;;;;;;;7.70;74.74;97323.97;5089493;28;20282;-79
2022/09/24 02:47:00;;;;;;;3.87;3.47;;;;;;;7.69;74.59;97316.25;5091204;28;20187;-78
2022/09/24 02:49:27;;;;;;;5.70;3.40;;;;;;;7.63;75.16;97321.59;5089613;28;20195;-78
2022/09/24 02:51:54;;;;;;;4.00;3.40;;;;;;;7.37;75.67;97300.03;5090997;28;20209;-75
2022/09/24 02:54:22;;;;;;;3.83;2.97;;;;;;;7.39;76.09;97321.44;5089922;28;20199;-77
2022/09/24 02:56:50;;;;;;;3.80;3.40;;;;;;;7.48;76.02;97322.88;5090089;28;20229;-75
2022/09/24 02:59:18;;;;;;;4.70;3.10;;;;;;;7.39;75.76;97341.22;5090701;28;20232;-76
2022/09/24 03:01:45;;;;;;;4.50;3.87;;;;;;;7.25;76.86;97331.28;5088870;28;20242;-75
2022/09/24 03:04:13;;;;;;;6.00;4.10;;;;;;;7.24;77.37;97341.63;5090464;28;20279;-80
2022/09/24 03:06:40;;;;;;;6.37;4.30;;;;;;;7.15;77.06;97339.31;5088730;28;20187;-78
2022/09/24 03:09:07;;;;;;;5.27;4.10;;;;;;;7.10;77.06;97330.88;5090329;28;20283;-79
2022/09/24 03:11:34;;;;;;;5.43;3.60;;;;;;;7.15;76.93;97339.31;5089111;28;20712;-79
2022/09/24 03:14:01;;;;;;;5.80;4.23;;;;;;;7.19;76.75;97346.09;5089989;28;20195;-78
2022/09/24 03:16:28;;;;;;;8.03;4.87;;;;;;;7.24;75.83;97349.34;5090199;28;20257;-78
2022/09/24 03:18:55;;;;;;;5.77;4.50;;;;;;;7.30;76.17;97342.31;5088923;28;20238;-77
2022/09/24 03:21:22;;;;;;;7.10;4.80;;;;;;;7.38;76.57;97348.09;5090183;28;20226;-78
2022/09/24 03:23:49;;;;;;;5.27;3.83;;;;;;;7.43;75.55;97344.53;5089820;28;20190;-79
2022/09/24 03:26:16;;;;;;;6.90;3.50;;;;;;;7.60;75.20;97363.78;5090335;28;20184;-81
2022/09/24 03:28:44;;;;;;;4.47;3.63;;;;;;;7.61;74.64;97350.00;5088744;28;20210;-78
2022/09/24 03:31:11;;;;;;;5.60;4.10;;;;;;;7.46;74.93;97336.72;5089988;28;20209;-75
2022/09/24 03:33:46;;;;;;;4.77;3.70;;;;;;;7.55;74.57;97355.34;5089506;28;20224;-80
2022/09/24 03:36:15;;;;;;;4.60;3.53;;;;;;;7.51;75.81;97361.47;5070679;28;20187;-79
2022/09/24 03:38:44;;;;;;;5.53;3.33;;;;;;;7.37;75.83;97356.72;5089976;28;20236;-76
2022/09/24 03:41:12;;;;;;;6.27;3.10;;;;;;;7.36;75.34;97355.00;5088184;28;20194;-79
2022/09/24 03:43:39;;;;;;;7.70;3.53;;;;;;;7.23;75.69;97355.41;5089704;28;20249;-80
2022/09/24 03:46:08;;;;;;;3.87;3.33;;;;;;;7.24;75.52;97360.50;5070162;28;20181;-79
2022/09/24 03:48:38;;;;;;;3.57;3.23;;;;;;;7.30;75.82;97360.34;5091449;28;20186;-76
2022/09/24 03:51:10;;;;;;;4.23;3.37;;;;;;;7.38;75.20;97373.00;5089167;28;20798;-81
2022/09/24 03:53:38;;;;;;;5.33;3.30;;;;;;;7.41;75.92;97372.94;5088407;28;20204;-81
2022/09/24 03:56:06;;;;;;;3.63;2.93;;;;;;;7.42;74.90;97376.34;5089472;28;20225;-78
2022/09/24 03:58:37;;;;;;;3.87;3.00;;;;;;;7.47;74.93;97377.06;5087882;28;20192;-79
2022/09/24 04:01:09;;;;;;;4.90;2.83;;;;;;;7.45;75.93;97373.69;5088458;28;20181;-78
2022/09/24 04:03:37;;;;;;;4.37;2.73;;;;;;;7.47;75.79;97382.22;5087737;28;20282;-78
2022/09/24 04:06:04;;;;;;;3.67;3.03;;;;;;;7.53;75.03;97387.19;5089413;28;20218;-80
2022/09/24 04:08:31;;;;;;;3.90;2.77;;;;;;;7.52;74.70;97391.50;5088906;28;20740;-81
2022/09/24 04:10:59;;;;;;;3.30;3.00;;;;;;;7.58;74.12;97396.50;5088162;28;20211;-79
2022/09/24 04:13:25;;;;;;;13.70;3.20;;;;;;;7.62;73.82;97398.09;5089115;28;20191;-79
2022/09/24 04:15:53;;;;;;;3.60;3.23;;;;;;;7.74;73.70;97402.91;5088405;28;20642;-79
2022/09/24 04:18:21;;;;;;;3.70;3.00;;;;;;;7.77;73.02;97401.97;5089326;28;20180;-77
2022/09/24 04:20:48;;;;;;;4.23;3.50;;;;;;;7.73;72.66;97410.69;5089819;28;20664;-80
2022/09/24 04:23:16;;;;;;;4.33;3.30;;;;;;;7.69;73.60;97403.91;5089561;28;20187;-80
2022/09/24 04:25:44;;;;;;;3.30;3.00;;;;;;;7.34;72.86;97368.81;5089051;28;20188;-79
2022/09/24 04:28:11;;;;;;;3.37;3.07;;;;;;;7.55;74.06;97406.88;5088037;28;20729;-75
2022/09/24 04:30:38;;;;;;;4.77;2.83;;;;;;;7.59;73.55;97405.91;5088500;28;20220;-80
2022/09/24 04:33:06;;;;;;;3.30;2.80;;;;;;;7.62;73.71;97404.97;5087040;28;20707;-81
2022/09/24 04:35:37;;;;;;;3.40;3.10;;;;;;;7.88;72.44;97415.38;5089207;28;20594;-80
2022/09/24 04:38:04;;;;;;;6.60;3.77;;;;;;;8.22;71.39;97422.06;5087142;28;20188;-80
2022/09/24 04:40:31;;;;;;;6.47;4.97;;;;;;;8.42;70.74;97412.91;5088712;28;20234;-79
2022/09/24 04:42:58;;;;;;;6.57;4.40;;;;;;;8.37;69.79;97420.78;5087967;28;20224;-80
2022/09/24 04:45:25;;;;;;;10.07;6.67;;;;;;;8.44;69.72;97422.28;5088448;28;20705;-78
2022/09/24 04:47:56;;;;;;;7.07;4.47;;;;;;;8.53;69.22;97410.84;5070559;28;20631;-82
2022/09/24 04:50:27;;;;;;;5.87;3.80;;;;;;;8.71;68.04;97416.25;5087518;28;20189;-80
2022/09/24 04:52:55;;;;;;;5.73;3.67;;;;;;;8.86;68.59;97418.31;5070687;28;20710;-81
2022/09/24 04:55:22;;;;;;;8.30;5.40;;;;;;;9.22;66.87;97421.41;5068783;28;20184;-78
2022/09/24 04:57:49;;;;;;;5.53;4.20;;;;;;;9.44;65.79;97422.34;5088421;28;20238;-81
2022/09/24 05:00:19;;;;;;;5.10;3.60;;;;;;;9.39;65.93;97420.84;5087175;28;20677;-81
2022/09/24 05:02:57;;;;;;;5.73;4.23;;;;;;;9.60;66.03;97420.91;5092337;28;20223;-78
2022/09/24 05:05:26;;;;;;;6.43;4.00;;;;;;;9.60;65.23;97420.91;5087707;28;20283;-81
2022/09/24 05:07:57;;;;;;;7.07;4.57;;;;;;;9.72;66.23;97415.31;5106068;28;20241;-80
2022/09/24 05:10:25;;;;;;;7.33;4.10;;;;;;;9.92;65.05;97422.34;5108176;28;20267;-79
2022/09/24 05:12:53;;;;;;;6.60;4.30;;;;;;;10.16;63.92;97420.63;5107066;28;20276;-81
2022/09/24 05:15:21;;;;;;;7.73;5.27;;;;;;;10.27;64.73;97424.47;5090390;28;20748;-83
2022/09/24 05:17:48;;;;;;;6.77;4.70;;;;;;;10.32;63.15;97403.59;5109433;28;20192;-81
2022/09/24 05:20:18;;;;;;;7.80;4.53;;;;;;;10.44;62.82;97416.06;5111641;28;20243;-81
2022/09/24 05:22:48;;;;;;;5.73;3.60;;;;;;;10.46;62.66;97416.84;5108633;28;20579;-83
2022/09/24 05:25:16;;;;;;;6.90;3.97;;;;;;;10.58;62.32;97416.34;5107851;28;20352;-80
2022/09/24 05:27:46;;;;;;;5.20;3.77;;;;;;;10.74;62.04;97425.19;5108356;28;20280;-78
2022/09/24 05:30:15;;;;;;;7.73;4.53;;;;;;;10.73;61.93;97417.47;5106680;28;20266;-79
2022/09/24 05:32:42;;;;;;;6.63;3.90;;;;;;;10.77;61.48;97413.84;5107934;28;20228;-79
2022/09/24 05:35:09;;;;;;;5.07;4.50;;;;;;;10.81;61.61;97421.44;5107363;28;20237;-82
2022/09/24 05:37:37;;;;;;;5.83;4.13;;;;;;;10.60;62.42;97427.47;5108295;28;20279;-83
2022/09/24 05:43:01;;;;;;;5.27;4.10;;;;;;;10.69;62.16;97421.94;5100776;28;20261;-79
2022/09/24 05:45:32;;;;;;;4.73;3.83;;;;;;;10.86;62.24;97427.28;5093665;28;20199;-78
2022/09/24 05:48:00;;;;;;;8.93;4.40;;;;;;;10.91;62.38;97433.13;5075163;28;20246;-82
2022/09/24 05:50:28;;;;;;;7.27;5.50;;;;;;;10.79;63.22;97435.38;5104465;28;20184;-82
2022/09/24 05:52:56;;;;;;;4.63;4.13;;;;;;;10.81;62.59;97426.63;5087518;28;20256;-76
2022/09/24 05:55:22;;;;;;;7.60;4.67;;;;;;;11.08;62.91;97435.03;5086178;28;20185;-82
2022/09/24 05:57:55;;;;;;;5.50;4.13;;;;;;;11.13;63.10;97427.88;5070960;28;20894;-81
2022/09/24 06:00:21;;;;;;;7.30;4.33;;;;;;;11.28;62.57;97432.44;5105225;28;20215;-81
2022/09/24 06:02:49;;;;;;;9.10;5.00;;;;;;;10.49;63.63;97339.88;5113819;28;20268;-83
2022/09/24 06:05:16;;;;;;;6.20;4.67;;;;;;;11.20;63.76;97421.56;5094720;28;20201;-82
2022/09/24 06:07:43;;;;;;;6.83;4.53;;;;;;;11.31;63.91;97443.50;5097466;28;20189;-80
2022/09/24 06:10:11;;;;;;;5.77;3.97;;;;;;;11.55;63.10;97427.81;5112628;28;20281;-80
2022/09/24 06:12:41;;;;;;;6.50;5.10;;;;;;;11.66;62.14;97433.41;5096000;28;20556;-82
2022/09/24 06:15:22;;;;;;;4.93;4.00;;;;;;;11.60;62.65;97425.88;5114976;28;20690;-79
2022/09/24 06:18:00;;;;;;;4.13;3.73;;;;;;;11.77;62.81;97444.16;5098679;28;20186;-82
2022/09/24 06:20:31;;;;;;;3.57;3.10;;;;;;;11.78;62.51;97433.72;5109657;28;20197;-78
2022/09/24 06:23:24;;;;;;;3.57;3.27;;;;;;;12.14;61.96;97432.06;5112138;28;20227;-81
2022/09/24 06:25:52;;;;;;;3.33;3.00;;;;;;;12.19;61.18;97437.91;5114336;28;20575;-80
2022/09/24 06:28:19;;;;;;;4.63;3.03;;;;;;;12.40;60.09;97422.25;5075934;28;20191;-78
2022/09/24 06:30:46;;;;;;;6.03;3.17;;;;;;;12.77;59.96;97445.56;5110257;28;20283;-76
2022/09/24 06:33:13;;;;;;;3.90;2.80;;;;;;;12.80;60.55;97438.47;5111674;28;20221;-76
2022/09/24 06:35:42;;;;;;;3.20;2.70;;;;;;;12.83;58.66;97440.91;5110278;28;20271;-79
2022/09/24 06:38:14;;;;;;;3.33;3.03;;;;;;;12.96;58.92;97430.78;5076190;28;20192;-79
2022/09/24 06:40:44;;;;;;;4.13;2.90;;;;;;;13.17;57.68;97444.50;5092711;28;20200;-80
2022/09/24 06:43:12;;;;;;;4.57;2.80;;;;;;;13.39;57.09;97432.09;5105511;28;20356;-80
2022/09/24 06:45:41;;;;;;;3.83;3.43;;;;;;;13.66;56.94;97438.50;5091909;28;20227;-80
2022/09/24 06:48:13;;;;;;;3.80;3.17;;;;;;;13.69;56.61;97436.59;5072574;28;20733;-79
2022/09/24 06:50:43;;;;;;;4.63;3.40;;;;;;;13.78;56.30;97441.31;5089889;28;20206;-79
2022/09/24 06:53:11;;;;;;;4.80;4.23;;;;;;;13.86;56.88;97444.38;5089883;28;20280;-79
2022/09/24 06:55:40;;;;;;;5.93;4.10;;;;;;;14.04;56.23;97441.69;5091294;28;20219;-79
2022/09/24 06:58:12;;;;;;;6.13;4.33;;;;;;;14.35;56.20;97447.81;5108073;28;20680;-80
2022/09/24 07:00:41;;;;;;;6.63;4.17;;;;;;;14.55;55.02;97452.78;5091721;28;20196;-81
2022/09/24 07:03:15;;;;;;;4.90;3.60;;;;;;;14.60;53.66;97458.59;5092163;28;20225;-80
2022/09/24 07:05:43;;;;;;;5.07;4.37;;;;;;;14.57;54.05;97453.53;5116857;27;20259;-78
2022/09/24 07:08:10;;;;;;;5.87;4.70;;;;;;;14.68;54.30;97460.78;5110750;28;20658;-78
2022/09/24 07:10:41;;;;;;;4.60;3.20;;;;;;;14.73;53.16;97427.47;5108934;28;20264;-81
2022/09/24 07:13:16;;;;;;;5.10;3.60;;;;;;;15.26;52.88;97448.75;5092818;28;20306;-77
2022/09/24 07:15:55;;;;;;;4.10;3.63;;;;;;;15.51;52.39;97448.19;5098629;28;20215;-80
2022/09/24 07:18:31;;;;;;;6.37;3.47;;;;;;;15.51;53.02;97448.19;5109646;28;20187;-80
2022/09/24 07:20:58;;;;;;;5.53;4.90;;;;;;;15.76;52.45;97452.78;5115135;28;20190;-79
2022/09/24 07:23:26;;;;;;;8.43;6.50;;;;;;;15.60;51.89;97421.50;5092498;28;20203;-80
2022/09/24 07:25:59;;;;;;;4.43;3.20;;;;;;;15.87;51.66;97426.84;5113015;28;20357;-76
2022/09/24 07:28:27;;;;;;;11.00;6.20;;;;;;;16.22;49.39;97447.28;5090803;28;20200;-78
2022/09/24 07:31:00;;;;;;;5.53;3.87;;;;;;;16.37;49.33;97439.44;5090558;28;20723;-80
2022/09/24 07:33:32;;;;;;;4.00;3.30;;;;;;;16.39;46.57;97456.69;5074070;28;20252;-84
2022/09/24 07:36:12;;;;;;;5.07;3.90;;;;;;;16.19;47.40;97433.59;5066117;28;20698;-76
2022/09/24 07:38:42;;;;;;;6.20;4.47;;;;;;;16.50;47.82;97451.69;5112073;28;20207;-78
2022/09/24 07:41:09;;;;;;;4.00;3.60;;;;;;;16.60;47.92;97444.09;5111378;28;20218;-81
2022/09/24 07:43:37;;;;;;;7.10;6.37;;;;;;;16.65;44.77;97434.19;5091383;28;20323;-82
2022/09/24 07:46:13;;;;;;;2.90;2.60;;;;;;;16.78;44.64;97435.91;5088808;28;20272;-84
2022/09/24 07:48:55;;;;;;;8.17;4.90;;;;;;;17.09;45.27;97450.47;5069762;28;20612;-80
2022/09/24 07:51:23;;;;;;;2.87;2.50;;;;;;;16.93;42.07;97444.56;5071908;28;20242;-78
2022/09/24 07:53:49;;;;;;;3.63;3.13;;;;;;;17.17;43.42;97445.56;5087814;28;20721;-81
2022/09/24 07:56:16;;;;;;;4.77;3.90;;;;;;;17.29;42.19;97441.34;5089170;28;20291;-76
2022/09/24 07:58:48;;;;;;;9.40;8.57;;;;;;;17.34;43.35;97434.00;5088105;28;20191;-79
2022/09/24 08:01:16;;;;;;;4.93;2.40;;;;;;;17.08;40.40;97417.41;5088954;28;20193;-81
2022/09/24 08:03:45;;;;;;;16.50;11.33;;;;;;;17.07;40.21;97439.25;5088404;28;20185;-81
2022/09/24 08:06:12;;;;;;;6.80;5.77;;;;;;;17.28;39.67;97443.09;5086797;28;20632;-78
2022/09/24 08:08:39;;;;;;;5.67;4.20;;;;;;;17.42;39.55;97443.03;5089139;28;20820;-80
2022/09/24 08:11:09;;;;;;;5.20;4.40;;;;;;;17.67;40.20;97437.00;5087501;28;20684;-82
2022/09/24 08:13:36;;;;;;;5.67;4.10;;;;;;;17.73;38.29;97431.34;5091826;28;20405;-82
2022/09/24 08:16:05;;;;;;;4.37;2.80;;;;;;;17.88;37.91;97436.41;5087423;28;20244;-80
2022/09/24 08:18:33;;;;;;;4.00;3.10;;;;;;;17.82;38.69;97431.59;5087596;28;20225;-83
2022/09/24 08:21:10;;;;;;;77.30;40.23;;;;;;;17.39;38.62;97430.16;5088855;28;20186;-83
2022/09/24 08:23:39;;;;;;;5.43;3.67;;;;;;;17.65;40.53;97424.03;5089090;28;20529;-82
2022/09/24 08:26:07;;;;;;;5.27;3.47;;;;;;;17.90;39.75;97428.44;5092717;28;20281;-79
2022/09/24 08:28:40;;;;;;;3.97;3.57;;;;;;;18.23;38.03;97435.72;5087022;28;20225;-79
2022/09/24 08:31:13;;;;;;;6.33;4.07;;;;;;;18.23;37.27;97420.00;5122064;27;20239;-80
2022/09/24 08:33:40;;;;;;;3.03;2.40;;;;;;;18.32;35.75;97425.44;5087011;28;20222;-81
2022/09/24 08:36:08;;;;;;;2.50;2.30;;;;;;;18.42;35.35;97425.63;5086327;28;20218;-81
2022/09/24 08:38:36;;;;;;;10.23;7.37;;;;;;;18.41;35.61;97424.78;5087623;28;20282;-80
2022/09/24 08:41:10;;;;;;;5.47;2.83;;;;;;;18.37;34.39;97414.63;5095555;28;20198;-81
2022/09/24 08:44:03;;;;;;;7.73;4.47;;;;;;;18.53;34.60;97412.59;5098435;28;20682;-82
2022/09/24 08:49:44;;;;;;;13.83;11.73;;;;;;;18.60;33.32;97413.84;5072024;28;20285;-79
2022/09/24 08:52:33;;;;;;;22.83;18.23;;;;;;;18.64;33.31;97413.53;5060272;28;20213;-80
2022/09/24 08:55:06;;;;;;;19.03;15.13;;;;;;;18.75;32.75;97402.28;5101163;28;20926;-77
2022/09/24 08:57:42;;;;;;;2.53;2.33;;;;;;;18.83;32.44;97405.16;5088058;28;20200;-81
2022/09/24 09:00:49;;;;;;;5.17;2.47;;;;;;;18.99;32.73;97412.75;5089248;28;20223;-80
2022/09/24 09:04:18;;;;;;;3.47;1.97;;;;;;;18.97;32.91;97414.66;5099236;28;20190;-80
2022/09/24 09:07:18;;;;;;;6.50;1.90;;;;;;;18.93;32.01;97411.41;5107581;28;20189;-77
2022/09/24 09:10:26;;;;;;;2.57;1.70;;;;;;;18.69;32.11;97413.22;5127475;27;20227;-77
2022/09/24 09:13:26;;;;;;;2.60;1.77;;;;;;;18.52;32.24;97400.47;5110310;27;20260;-77
2022/09/24 09:16:04;;;;;;;2.37;2.00;;;;;;;18.74;32.75;97405.81;5128184;27;20201;-80
2022/09/24 09:18:38;;;;;;;4.87;2.00;;;;;;;18.99;32.34;97413.59;5095686;28;20642;-80
2022/09/24 09:21:17;;;;;;;2.90;2.10;;;;;;;19.07;31.86;97410.41;5105980;28;20273;-77
2022/09/24 09:23:49;;;;;;;3.77;2.30;;;;;;;19.09;31.89;97409.34;5107558;28;20212;-81
2022/09/24 09:26:18;;;;;;;2.53;1.77;;;;;;;19.21;32.95;97405.78;5106547;28;20187;-82
2022/09/24 09:28:58;;;;;;;5.47;2.20;;;;;;;19.38;32.72;97408.03;5106903;28;20217;-82
2022/09/24 09:32:02;;;;;;;2.80;2.00;;;;;;;19.63;32.47;97406.19;5089508;28;20225;-82
2022/09/24 09:34:59;;;;;;;3.23;2.17;;;;;;;19.72;33.25;97408.13;5096929;28;20199;-73
2022/09/24 09:37:54;;;;;;;3.20;2.20;;;;;;;19.78;32.05;97395.34;5087736;28;20276;-79
2022/09/24 09:40:51;;;;;;;4.40;3.20;;;;;;;19.90;32.04;97404.91;5129101;28;20246;-79
2022/09/24 09:43:19;;;;;;;2.17;1.93;;;;;;;19.98;31.58;97401.69;5126076;27;20693;-78
2022/09/24 09:46:01;;;;;;;3.00;2.03;;;;;;;20.04;31.82;97390.69;5128887;28;20696;-80
2022/09/24 09:48:35;;;;;;;5.43;2.30;;;;;;;20.04;31.73;97396.81;5129097;28;20190;-79
2022/09/24 09:51:05;;;;;;;2.30;2.10;;;;;;;20.00;31.13;97389.25;5092143;28;20190;-78
2022/09/24 09:53:32;;;;;;;4.40;2.53;;;;;;;19.98;32.77;97370.97;5128268;28;20250;-78
2022/09/24 09:56:05;;;;;;;3.23;2.33;;;;;;;20.11;32.20;97386.66;5126589;28;20678;-77
2022/09/24 09:58:44;;;;;;;2.20;2.00;;;;;;;19.99;31.19;97383.16;5129826;27;20217;-79
2022/09/24 10:01:14;;;;;;;3.67;1.80;;;;;;;19.79;31.42;97377.78;5112921;27;20645;-79
2022/09/24 10:03:48;;;;;;;1.77;1.67;;;;;;;19.69;32.31;97372.41;5131238;27;20674;-79
2022/09/24 10:06:27;;;;;;;2.10;1.70;;;;;;;19.67;32.12;97340.13;5132164;27;20202;-79
2022/09/24 10:09:07;;;;;;;2.27;1.87;;;;;;;19.88;31.55;97371.81;5131344;27;20221;-78
2022/09/24 10:11:34;;;;;;;3.33;2.37;;;;;;;20.05;31.48;97372.16;5133409;27;20612;-81
2022/09/24 10:14:07;;;;;;;2.67;2.20;;;;;;;19.99;31.50;97371.81;5112441;27;20275;-79
2022/09/24 10:16:38;;;;;;;2.63;1.60;;;;;;;19.84;30.75;97341.47;5130891;27;20190;-80
2022/09/24 10:19:18;;;;;;;3.17;2.40;;;;;;;19.76;30.94;97370.13;5131919;27;20200;-80
2022/09/24 10:21:46;;;;;;;1.60;1.50;;;;;;;19.82;30.64;97362.63;5132649;27;20222;-84
2022/09/24 10:24:25;;;;;;;4.00;2.37;;;;;;;19.81;30.71;97363.56;5134415;27;20697;-80
2022/09/24 10:26:52;;;;;;;2.90;1.73;;;;;;;19.93;30.74;97356.50;5131374;27;20746;-81
2022/09/24 10:32:20;;;;;;;3.40;2.37;;;;;;;20.23;31.57;97359.41;5131223;27;20198;-82
2022/09/24 10:35:05;;;;;;;3.83;1.83;;;;;;;20.25;31.12;97346.97;5130769;27;20341;-82
2022/09/24 10:37:34;;;;;;;1.73;1.50;;;;;;;20.32;30.53;97348.13;5133116;27;20191;-78
2022/09/24 10:40:11;;;;;;;1.80;1.50;;;;;;;19.98;31.11;97362.25;5133363;27;20274;-82
2022/09/24 10:42:39;;;;;;;2.73;1.60;;;;;;;19.68;31.54;97354.94;5144414;27;20223;-78
2022/09/24 10:45:12;;;;;;;3.03;1.80;;;;;;;19.93;32.19;97351.25;5125477;27;20224;-82
2022/09/24 10:47:52;;;;;;;1.60;1.50;;;;;;;20.26;29.95;97354.72;5117542;27;20559;-80
2022/09/24 10:51:10;;;;;;;2.00;1.80;;;;;;;20.05;31.00;97347.69;5132124;27;20282;-80
2022/09/24 10:54:05;;;;;;;2.47;1.73;;;;;;;20.38;32.35;97342.38;5027660;28;20317;-83
2022/09/24 10:56:40;;;;;;;2.30;2.10;;;;;;;20.40;32.08;97335.22;5111640;27;20210;-82
2022/09/24 10:59:19;;;;;;;2.63;2.27;;;;;;;20.69;32.15;97331.06;5131650;27;20183;-78
2022/09/24 11:02:03;;;;;;;6.20;1.90;;;;;;;20.63;31.12;97325.47;5130707;27;20202;-81
2022/09/24 11:04:42;;;;;;;2.83;1.60;;;;;;;20.48;29.80;97327.56;5114153;27;20193;-76
2022/09/24 11:07:13;;;;;;;4.13;1.87;;;;;;;20.45;30.50;97321.69;5130869;27;20810;-78
2022/09/24 11:09:56;;;;;;;2.57;1.90;;;;;;;20.49;29.86;97300.25;5134017;27;20225;-78
2022/09/24 11:12:53;;;;;;;2.10;1.50;;;;;;;20.56;30.84;97327.75;5130800;27;20184;-80
2022/09/24 11:15:33;;;;;;;1.87;1.50;;;;;;;20.32;32.06;97332.34;5135780;27;20183;-79
2022/09/24 11:18:00;;;;;;;2.57;2.10;;;;;;;20.50;31.07;97328.25;5111683;27;20278;-80
2022/09/24 11:20:36;;;;;;;2.73;1.73;;;;;;;20.62;30.25;97327.25;5131488;27;20217;-80
2022/09/24 11:23:11;;;;;;;2.87;2.30;;;;;;;20.88;30.54;97319.84;5129849;27;20183;-79
2022/09/24 11:25:51;;;;;;;2.03;1.83;;;;;;;21.02;29.70;97312.50;5131064;27;20186;-81
2022/09/24 11:28:39;;;;;;;2.63;2.00;;;;;;;21.14;30.55;97315.94;5131894;27;20182;-84
2022/09/24 11:31:19;;;;;;;2.77;1.90;;;;;;;21.18;28.67;97304.19;5130372;27;20233;-80
2022/09/24 11:34:10;;;;;;;3.37;1.80;;;;;;;21.08;29.14;97306.72;5131999;27;20271;-80
2022/09/24 11:37:20;;;;;;;2.00;1.50;;;;;;;20.98;28.22;97305.81;5130876;27;20183;-80
2022/09/24 11:40:02;;;;;;;3.43;2.30;;;;;;;21.07;29.56;97306.88;5129612;27;20183;-79
2022/09/24 11:42:44;;;;;;;2.20;2.00;;;;;;;21.15;28.95;97300.94;5112162;27;20907;-80
2022/09/24 11:45:36;;;;;;;1.60;1.50;;;;;;;21.01;28.63;97297.66;5129804;27;20812;-81
2022/09/24 11:48:31;;;;;;;2.93;1.60;;;;;;;21.22;28.19;97294.22;5111109;27;20187;-80
2022/09/24 11:51:32;;;;;;;1.70;1.50;;;;;;;21.01;28.38;97294.19;5132833;27;20183;-82
2022/09/24 11:54:03;;;;;;;1.60;1.50;;;;;;;21.05;28.52;97290.34;5129777;27;20313;-78
2022/09/24 11:56:37;;;;;;;2.03;1.30;;;;;;;21.11;28.28;97305.66;5129203;27;20179;-80
2022/09/24 11:59:17;;;;;;;3.97;2.00;;;;;;;21.08;28.25;97298.84;5109903;27;20255;-76
2022/09/24 12:02:11;;;;;;;3.93;1.90;;;;;;;21.33;28.63;97296.78;5114843;27;20213;-77
2022/09/24 12:05:14;;;;;;;1.60;1.50;;;;;;;21.23;28.01;97296.72;5129681;27;20205;-77
2022/09/24 12:08:14;;;;;;;2.37;1.90;;;;;;;21.27;29.25;97305.22;5077453;27;20183;-80
2022/09/24 12:10:51;;;;;;;4.03;2.07;;;;;;;21.31;28.38;97307.44;5107853;27;20187;-80
2022/09/24 12:13:25;;;;;;;1.80;1.70;;;;;;;21.41;28.00;97303.06;5129538;27;20215;-77
2022/09/24 12:16:09;;;;;;;1.93;1.50;;;;;;;21.55;28.84;97304.53;5129281;27;20665;-77
2022/09/24 12:19:14;;;;;;;2.90;2.50;;;;;;;21.63;27.81;97305.56;5128034;27;20183;-81
2022/09/24 12:21:44;;;;;;;2.03;1.83;;;;;;;21.69;30.09;97306.81;5128836;27;20193;-80